Time;durP1;ratioP1;P1;durP2;ratioP2;P2;SDS_P1;SDS_P2;PMS_P1;PMS_P2;Temp;Humidity;BMP_temperature;BMP_pressure;BME280_temperature;BME280_humidity;BME280_pressure;Samples;Min_cycle;Max_cycle;Signal;HPM_P1;HPM_P2
2022/05/08 00:00:32;;;;;;;6.63;2.22;;;10.10;99.90;;;;;;5070520;28;20127;-81
2022/05/08 00:02:58;;;;;;;6.68;1.40;;;10.20;99.90;;;;;;5052916;28;20044;-81
2022/05/08 00:05:25;;;;;;;9.43;1.65;;;10.10;99.90;;;;;;5079493;28;20075;-82
2022/05/08 00:07:51;;;;;;;9.93;1.70;;;10.10;99.90;;;;;;5090537;28;20052;-81
2022/05/08 00:10:17;;;;;;;8.63;1.70;;;10.10;99.90;;;;;;5072744;28;20101;-82
2022/05/08 00:12:43;;;;;;;6.85;1.77;;;10.00;99.90;;;;;;5090754;28;20040;-82
2022/05/08 00:15:09;;;;;;;9.40;2.00;;;10.00;99.90;;;;;;5090045;28;20048;-81
2022/05/08 00:17:35;;;;;;;12.20;2.03;;;9.90;99.90;;;;;;5102035;28;20051;-82
2022/05/08 00:20:04;;;;;;;8.60;1.80;;;9.90;99.90;;;;;;5072971;28;20043;-82
2022/05/08 00:22:30;;;;;;;4.32;1.50;;;9.90;99.90;;;;;;5073398;28;20044;-82
2022/05/08 00:24:56;;;;;;;12.23;1.92;;;9.80;99.90;;;;;;5090945;28;20380;-82
2022/05/08 00:27:22;;;;;;;10.38;2.55;;;9.80;99.90;;;;;;5089312;28;20055;-81
2022/05/08 00:29:47;;;;;;;5.15;1.45;;;9.70;99.90;;;;;;5090351;28;20047;-81
2022/05/08 00:32:13;;;;;;;11.07;1.77;;;9.70;99.90;;;;;;5089525;28;20052;-82
2022/05/08 00:34:39;;;;;;;8.40;1.98;;;9.60;99.90;;;;;;5073853;28;20482;-81
2022/05/08 00:37:07;;;;;;;8.57;1.92;;;9.60;99.90;;;;;;5073108;28;20093;-84
2022/05/08 00:39:33;;;;;;;4.80;1.48;;;9.50;99.90;;;;;;5107953;28;20054;-81
2022/05/08 00:42:00;;;;;;;9.43;2.33;;;9.50;99.90;;;;;;5089841;28;20463;-82
2022/05/08 00:44:25;;;;;;;6.57;2.00;;;9.50;99.90;;;;;;5089077;28;20052;-82
2022/05/08 00:46:51;;;;;;;8.68;1.90;;;9.40;99.90;;;;;;5107137;28;20055;-81
2022/05/08 00:49:17;;;;;;;10.75;2.20;;;9.40;99.90;;;;;;5090123;28;20094;-81
2022/05/08 00:51:47;;;;;;;11.15;2.50;;;9.30;99.90;;;;;;5106417;28;20079;-81
2022/05/08 00:54:13;;;;;;;4.88;1.60;;;9.30;99.90;;;;;;5072961;28;20113;-81
2022/05/08 00:56:40;;;;;;;13.52;2.40;;;9.30;99.90;;;;;;5072446;28;20165;-81
2022/05/08 00:59:05;;;;;;;9.50;2.20;;;9.20;99.90;;;;;;5089785;28;20048;-82
2022/05/08 01:01:31;;;;;;;7.88;2.00;;;9.20;99.90;;;;;;5106893;28;20094;-81
2022/05/08 01:03:57;;;;;;;6.03;1.73;;;9.20;99.90;;;;;;5107137;28;20549;-81
2022/05/08 01:06:23;;;;;;;8.95;2.03;;;9.10;99.90;;;;;;5055724;28;20055;-82
2022/05/08 01:08:50;;;;;;;4.93;1.70;;;9.10;99.90;;;;;;5090331;28;20084;-81
2022/05/08 01:11:16;;;;;;;9.73;2.10;;;9.10;99.90;;;;;;5072344;28;20048;-82
2022/05/08 01:13:43;;;;;;;11.68;2.25;;;9.20;99.90;;;;;;5073173;28;20481;-81
2022/05/08 01:16:11;;;;;;;6.00;2.38;;;9.20;99.90;;;;;;5105651;28;20051;-86
2022/05/08 01:18:38;;;;;;;12.20;2.10;;;9.10;99.90;;;;;;5089575;28;20071;-81
2022/05/08 01:21:06;;;;;;;8.43;1.60;;;9.10;99.90;;;;;;5089425;28;20044;-81
2022/05/08 01:23:32;;;;;;;7.15;1.63;;;9.10;99.90;;;;;;5072922;28;20443;-81
2022/05/08 01:25:57;;;;;;;10.50;1.73;;;9.00;99.90;;;;;;5089505;28;20109;-82
2022/05/08 01:28:25;;;;;;;7.10;1.80;;;9.10;99.90;;;;;;5072711;28;20051;-81
2022/05/08 01:30:53;;;;;;;6.07;1.42;;;8.90;99.90;;;;;;5089951;28;20085;-81
2022/05/08 01:33:20;;;;;;;5.30;1.92;;;8.80;99.90;;;;;;5088701;28;20113;-81
2022/05/08 01:35:47;;;;;;;8.07;2.08;;;8.80;99.90;;;;;;5089601;28;20052;-81
2022/05/08 01:38:14;;;;;;;10.32;1.80;;;8.70;99.90;;;;;;5088685;28;20489;-86
2022/05/08 01:40:40;;;;;;;8.50;2.08;;;8.70;99.90;;;;;;5072377;28;20048;-81
2022/05/08 01:43:07;;;;;;;8.45;1.90;;;8.60;99.90;;;;;;5089701;28;20040;-81
2022/05/08 01:45:33;;;;;;;;;;;8.60;99.90;;;;;;5089679;28;20055;-82
2022/05/08 01:50:44;;;;;;;8.35;1.98;;;8.60;99.90;;;;;;5075661;28;20056;-81
2022/05/08 01:53:10;;;;;;;7.65;2.30;;;8.40;99.90;;;;;;5089367;28;20044;-81
2022/05/08 01:55:36;;;;;;;;;;;8.40;99.90;;;;;;5089300;28;20048;-81
2022/05/08 01:58:02;;;;;;;9.98;2.15;;;8.30;99.90;;;;;;5072699;28;20388;-82
2022/05/08 02:00:29;;;;;;;4.82;1.73;;;8.30;99.90;;;;;;5072023;28;20717;-81
2022/05/08 02:02:59;;;;;;;8.45;2.25;;;8.20;99.90;;;;;;5089967;28;20090;-81
2022/05/08 02:05:25;;;;;;;10.05;2.22;;;8.20;99.90;;;;;;5089279;28;20385;-82
2022/05/08 02:07:51;;;;;;;11.85;1.77;;;8.20;99.90;;;;;;5090277;28;20536;-83
2022/05/08 02:10:18;;;;;;;12.02;2.70;;;8.20;99.90;;;;;;5092292;28;20052;-81
2022/05/08 02:12:44;;;;;;;13.57;2.35;;;8.00;99.90;;;;;;5092991;28;20490;-81
2022/05/08 02:15:12;;;;;;;7.15;1.77;;;7.90;99.90;;;;;;5075929;28;20062;-81
2022/05/08 02:17:39;;;;;;;7.60;2.20;;;7.90;99.90;;;;;;5075981;28;20055;-83
2022/05/08 02:20:06;;;;;;;5.97;1.48;;;7.90;99.90;;;;;;5093481;28;20044;-81
2022/05/08 02:22:33;;;;;;;13.20;2.38;;;7.70;99.90;;;;;;5092463;28;20062;-81
2022/05/08 02:24:59;;;;;;;8.20;2.35;;;7.70;99.90;;;;;;5076419;28;20400;-81
2022/05/08 02:27:25;;;;;;;17.50;2.45;;;7.60;99.90;;;;;;5091887;28;20078;-81
2022/05/08 02:29:51;;;;;;;6.30;2.58;;;7.50;99.90;;;;;;5109493;28;20050;-81
2022/05/08 02:32:18;;;;;;;;;;;7.50;99.90;;;;;;5109906;27;20519;-86
2022/05/08 02:34:44;;;;;;;6.77;1.90;;;7.50;99.90;;;;;;5093029;28;20015;-81
2022/05/08 02:37:09;;;;;;;8.15;2.05;;;7.50;99.90;;;;;;5075543;28;20079;-81
2022/05/08 02:39:35;;;;;;;10.68;2.53;;;7.40;99.90;;;;;;5075252;28;20083;-81
2022/05/08 02:42:01;;;;;;;6.57;2.00;;;7.40;99.90;;;;;;5091780;28;20097;-81
2022/05/08 02:44:27;;;;;;;7.40;2.60;;;7.40;99.90;;;;;;5069125;28;20135;-81
2022/05/08 02:46:52;;;;;;;5.07;2.17;;;7.30;99.90;;;;;;5109777;27;20051;-82
2022/05/08 02:49:18;;;;;;;6.95;2.00;;;7.50;99.90;;;;;;5109358;28;20044;-84
2022/05/08 02:51:44;;;;;;;14.95;2.60;;;7.20;99.90;;;;;;5109156;28;20546;-82
2022/05/08 02:54:09;;;;;;;8.48;2.72;;;7.10;99.90;;;;;;5092339;28;20048;-81
2022/05/08 02:59:20;;;;;;;11.63;1.77;;;7.00;99.90;;;;;;5111412;27;20121;-82
2022/05/08 03:01:45;;;;;;;8.27;2.38;;;7.00;99.90;;;;;;5092332;28;20481;-81
2022/05/08 03:04:11;;;;;;;9.32;2.53;;;7.10;99.90;;;;;;5075009;28;20044;-82
2022/05/08 03:06:38;;;;;;;8.18;2.20;;;7.00;99.90;;;;;;5091175;28;20528;-81
2022/05/08 03:09:04;;;;;;;18.02;2.40;;;6.90;99.90;;;;;;5092243;28;20055;-81
2022/05/08 03:11:30;;;;;;;5.93;2.53;;;7.10;99.90;;;;;;5091066;28;20094;-80
2022/05/08 03:13:57;;;;;;;11.80;2.15;;;7.00;99.90;;;;;;5090892;28;20084;-81
2022/05/08 03:16:23;;;;;;;13.57;2.20;;;6.90;99.90;;;;;;5091621;28;20044;-81
2022/05/08 03:18:50;;;;;;;6.15;1.38;;;7.00;99.90;;;;;;5091660;28;20089;-81
2022/05/08 03:21:16;;;;;;;10.15;2.10;;;7.00;99.90;;;;;;5080020;28;20127;-81
2022/05/08 03:23:44;;;;;;;8.25;2.22;;;6.80;99.90;;;;;;5073641;28;20049;-82
2022/05/08 03:26:10;;;;;;;6.30;2.22;;;6.80;99.90;;;;;;5090959;28;20489;-81
2022/05/08 03:28:39;;;;;;;13.32;2.42;;;6.80;99.90;;;;;;5091217;28;20642;-81
2022/05/08 03:31:06;;;;;;;9.55;1.83;;;6.80;99.90;;;;;;5074475;28;20058;-81
2022/05/08 03:33:32;;;;;;;;;;;6.80;99.90;;;;;;5090919;28;20063;-82
2022/05/08 03:35:58;;;;;;;8.43;2.10;;;6.70;99.90;;;;;;5091657;28;19927;-81
2022/05/08 03:38:24;;;;;;;;;;;6.70;99.90;;;;;;5074516;28;20055;-81
2022/05/08 03:40:50;;;;;;;8.73;2.63;;;6.60;99.90;;;;;;5090831;28;19924;-82
2022/05/08 03:43:16;;;;;;;8.98;2.08;;;6.50;99.90;;;;;;5074311;28;20040;-82
2022/05/08 03:45:43;;;;;;;5.57;1.70;;;6.50;99.90;;;;;;5090670;28;20054;-81
2022/05/08 03:48:09;;;;;;;11.38;2.50;;;6.40;99.90;;;;;;5070037;28;20044;-81
2022/05/08 03:50:36;;;;;;;6.78;2.30;;;6.60;99.90;;;;;;5091205;28;20143;-81
2022/05/08 03:53:02;;;;;;;5.40;2.05;;;6.40;99.90;;;;;;5107747;28;20043;-81
2022/05/08 03:55:28;;;;;;;4.95;2.28;;;6.40;99.90;;;;;;5090321;28;20125;-81
2022/05/08 03:57:54;;;;;;;7.63;2.05;;;6.30;99.90;;;;;;5091384;28;20048;-81
2022/05/08 04:00:20;;;;;;;11.32;2.65;;;6.30;99.90;;;;;;5108317;28;20127;-81
2022/05/08 04:02:46;;;;;;;;;;;6.20;99.90;;;;;;5091287;28;20558;-82
2022/05/08 04:05:13;;;;;;;5.90;2.17;;;6.20;99.90;;;;;;5059386;28;20385;-81
2022/05/08 04:07:38;;;;;;;;;;;6.20;99.90;;;;;;5124451;27;20079;-83
2022/05/08 04:10:05;;;;;;;;;;;6.50;99.90;;;;;;5091810;28;19963;-82
2022/05/08 04:12:30;;;;;;;;;;;6.20;99.90;;;;;;5090722;28;19923;-81
2022/05/08 04:14:56;;;;;;;;;;;6.20;99.90;;;;;;5108395;28;19976;-81
2022/05/08 04:17:21;;;;;;;;;;;6.20;99.90;;;;;;5091579;28;20376;-81
2022/05/08 04:19:47;;;;;;;;;;;6.20;99.90;;;;;;5089769;28;19924;-81
2022/05/08 04:24:58;;;;;;;;;;;6.30;99.90;;;;;;5070813;28;19932;-82
2022/05/08 04:27:23;;;;;;;;;;;6.30;99.90;;;;;;5053861;28;19924;-85
2022/05/08 04:29:49;;;;;;;;;;;6.30;99.90;;;;;;5053630;28;19931;-82
2022/05/08 04:32:15;;;;;;;;;;;6.20;99.90;;;;;;5087188;28;19924;-83
2022/05/08 04:34:40;;;;;;;;;;;6.20;99.90;;;;;;5104240;28;19931;-82
2022/05/08 04:37:06;;;;;;;;;;;6.20;99.90;;;;;;5106676;28;19943;-82
2022/05/08 04:39:31;;;;;;;;;;;6.20;99.90;;;;;;5090148;28;20010;-82
2022/05/08 04:41:57;;;;;;;;;;;6.30;99.90;;;;;;5123876;27;19920;-82
2022/05/08 04:44:22;;;;;;;;;;;6.30;99.90;;;;;;5090284;28;19927;-82
2022/05/08 04:46:48;;;;;;;;;;;6.30;99.90;;;;;;5090306;28;20019;-82
2022/05/08 04:49:14;;;;;;;;;;;6.50;99.90;;;;;;5090623;28;19923;-82
2022/05/08 04:51:39;;;;;;;;;;;6.50;99.90;;;;;;5123533;27;19924;-82
2022/05/08 04:54:05;;;;;;;;;;;6.60;99.90;;;;;;5106239;28;19924;-83
2022/05/08 04:56:31;;;;;;;;;;;6.60;99.90;;;;;;5072301;28;20014;-82
2022/05/08 04:58:56;;;;;;;;;;;6.80;99.90;;;;;;5123876;28;20358;-82
2022/05/08 05:01:22;;;;;;;;;;;6.80;99.90;;;;;;5107082;28;19928;-82
2022/05/08 05:03:48;;;;;;;;;;;6.80;99.90;;;;;;5089850;28;19916;-82
2022/05/08 05:06:14;;;;;;;;;;;6.90;99.90;;;;;;5089675;28;19920;-83
2022/05/08 05:08:39;;;;;;;;;;;7.00;99.90;;;;;;5089814;28;19927;-82
2022/05/08 05:11:06;;;;;;;;;;;7.00;99.90;;;;;;5123402;27;19928;-81
2022/05/08 05:13:32;;;;;;;;;;;7.00;99.90;;;;;;5068334;28;20007;-82
2022/05/08 05:15:57;;;;;;;;;;;7.10;99.90;;;;;;5086908;28;20023;-82
2022/05/08 05:18:23;;;;;;;;;;;7.10;99.90;;;;;;5105650;28;19973;-82
2022/05/08 05:20:48;;;;;;;;;;;7.10;99.90;;;;;;5089480;28;19967;-82
2022/05/08 05:23:14;;;;;;;;;;;7.20;99.90;;;;;;5089750;28;19962;-82
2022/05/08 05:25:39;;;;;;;;;;;7.20;99.90;;;;;;5088749;28;19920;-82
2022/05/08 05:28:05;;;;;;;;;;;7.20;99.90;;;;;;5106953;28;20288;-82
2022/05/08 05:30:30;;;;;;;;;;;7.20;99.90;;;;;;5088978;28;20011;-85
2022/05/08 05:32:56;;;;;;;;;;;7.50;99.90;;;;;;5106454;28;20019;-82
2022/05/08 05:35:22;;;;;;;;;;;7.30;99.90;;;;;;5123883;28;20388;-82
2022/05/08 05:37:47;;;;;;;;;;;7.30;99.90;;;;;;5105990;28;20392;-83
2022/05/08 05:40:13;;;;;;;;;;;7.30;99.90;;;;;;5088131;28;19931;-82
2022/05/08 05:42:38;;;;;;;;;;;7.40;99.90;;;;;;5108833;28;20006;-82
2022/05/08 05:45:04;;;;;;;;;;;7.40;99.90;;;;;;5073609;28;20273;-82
2022/05/08 05:50:15;;;;;;;;;;;7.60;99.90;;;;;;5108043;28;20271;-82
2022/05/08 05:52:40;;;;;;;;;;;7.60;99.90;;;;;;5092423;28;19926;-82
2022/05/08 05:55:06;;;;;;;;;;;7.70;99.90;;;;;;5127555;27;20327;-83
2022/05/08 05:57:36;;;;;;;;;;;7.70;99.90;;;;;;5075885;28;19920;-83
2022/05/08 06:00:06;;;;;;;;;;;7.80;99.90;;;;;;5075920;28;19920;-82
2022/05/08 06:02:31;;;;;;;;;;;7.90;99.90;;;;;;5093408;28;19971;-82
2022/05/08 06:04:57;;;;;;;;;;;8.00;99.90;;;;;;5092862;28;20482;-82
2022/05/08 06:07:23;;;;;;;;;;;8.10;99.90;;;;;;5126406;27;20480;-82
2022/05/08 06:09:48;;;;;;;;;;;8.20;99.90;;;;;;5092571;28;19920;-82
2022/05/08 06:12:14;;;;;;;;;;;8.20;99.90;;;;;;5109188;28;20007;-82
2022/05/08 06:14:40;;;;;;;;;;;8.30;99.90;;;;;;5091935;28;19920;-82
2022/05/08 06:17:05;;;;;;;;;;;8.40;99.90;;;;;;5127299;27;20286;-82
2022/05/08 06:19:32;;;;;;;;;;;8.50;99.90;;;;;;5127253;27;20003;-82
2022/05/08 06:21:58;;;;;;;;;;;8.70;99.90;;;;;;5092019;28;19924;-82
2022/05/08 06:24:23;;;;;;;;;;;8.60;99.90;;;;;;5126636;27;20258;-82
2022/05/08 06:26:49;;;;;;;;;;;8.70;99.90;;;;;;5074866;28;19920;-82
2022/05/08 06:29:15;;;;;;;;;;;8.80;99.90;;;;;;5109333;28;20425;-83
2022/05/08 06:31:40;;;;;;;;;;;8.90;99.90;;;;;;5092017;28;19931;-83
2022/05/08 06:34:08;;;;;;;;;;;8.90;99.90;;;;;;5092650;28;19923;-82
2022/05/08 06:36:33;;;;;;;;;;;9.00;99.90;;;;;;5092107;28;20369;-82
2022/05/08 06:38:59;;;;;;;;;;;9.00;99.90;;;;;;5109058;28;20016;-83
2022/05/08 06:41:26;;;;;;;;;;;9.00;99.90;;;;;;5108468;28;20388;-83
2022/05/08 06:43:53;;;;;;;;;;;9.10;99.90;;;;;;5075021;28;19927;-83
2022/05/08 06:46:19;;;;;;;;;;;9.10;99.90;;;;;;5091804;28;19927;-82
2022/05/08 06:48:46;;;;;;;;;;;9.20;99.90;;;;;;5090647;28;19927;-82
2022/05/08 06:51:12;;;;;;;;;;;9.30;99.90;;;;;;5108521;28;20381;-83
2022/05/08 06:53:37;;;;;;;;;;;9.30;99.90;;;;;;5090394;28;19924;-83
2022/05/08 06:56:03;;;;;;;;;;;9.40;99.90;;;;;;5105841;27;20389;-83
2022/05/08 06:58:28;;;;;;;;;;;9.60;99.90;;;;;;5110189;27;19980;-83
2022/05/08 07:03:39;;;;;;;;;;;9.90;99.90;;;;;;5092267;28;20311;-84
2022/05/08 07:06:05;;;;;;;;;;;10.10;99.90;;;;;;5091533;28;20011;-83
2022/05/08 07:08:30;;;;;;;;;;;10.10;99.90;;;;;;5074946;28;20002;-82
2022/05/08 07:10:56;;;;;;;;;;;10.30;99.90;;;;;;5125383;27;20361;-82
2022/05/08 07:13:25;;;;;;;;;;;10.40;99.90;;;;;;5125984;27;19920;-83
2022/05/08 07:15:51;;;;;;;;;;;10.40;99.90;;;;;;5091393;28;20019;-81
2022/05/08 07:18:18;;;;;;;;;;;10.50;99.90;;;;;;5126486;27;19973;-82
2022/05/08 07:20:44;;;;;;;;;;;10.40;99.90;;;;;;5074660;28;19924;-83
2022/05/08 07:23:09;;;;;;;;;;;10.50;99.90;;;;;;5091640;28;19973;-85
2022/05/08 07:25:35;;;;;;;;;;;10.50;99.90;;;;;;5090947;28;20002;-82
2022/05/08 07:28:00;;;;;;;;;;;10.50;99.90;;;;;;5091248;28;19924;-82
2022/05/08 07:30:26;;;;;;;;;;;10.60;99.90;;;;;;5054050;28;19942;-82
2022/05/08 07:32:52;;;;;;;;;;;10.80;99.90;;;;;;5106088;28;19927;-82
2022/05/08 07:38:03;;;;;;;;;;;11.20;99.90;;;;;;5124277;27;20176;-82
2022/05/08 07:40:29;;;;;;;;;;;11.30;99.90;;;;;;5090937;28;20271;-83
2022/05/08 07:42:55;;;;;;;;;;;11.40;99.90;;;;;;5074127;28;20408;-83
2022/05/08 07:45:21;;;;;;;;;;;11.50;99.90;;;;;;5091183;28;19920;-83
2022/05/08 07:47:46;;;;;;;;;;;11.60;99.90;;;;;;5107876;28;19920;-83
2022/05/08 07:50:12;;;;;;;;;;;11.60;99.90;;;;;;5091363;28;19920;-83
2022/05/08 07:52:39;;;;;;;;;;;11.70;99.90;;;;;;5106952;28;19920;-83
2022/05/08 07:55:05;;;;;;;;;;;11.70;99.90;;;;;;5090676;28;20204;-82
2022/05/08 07:57:30;;;;;;;;;;;11.80;99.90;;;;;;5107805;28;19920;-83
2022/05/08 07:59:56;;;;;;;;;;;11.80;99.90;;;;;;5090041;28;19967;-83
2022/05/08 08:02:21;;;;;;;;;;;11.90;99.90;;;;;;5091232;28;19972;-83
2022/05/08 08:04:47;;;;;;;;;;;11.90;99.90;;;;;;5090697;28;19924;-84
2022/05/08 08:07:12;;;;;;;;;;;11.90;99.90;;;;;;5090529;28;19923;-83
2022/05/08 08:09:38;;;;;;;;;;;11.90;99.90;;;;;;5089587;28;19931;-82
2022/05/08 08:12:04;;;;;;;;;;;11.90;99.90;;;;;;5075814;28;20266;-83
2022/05/08 08:14:29;;;;;;;;;;;11.90;99.90;;;;;;5073287;28;19949;-83
2022/05/08 08:16:55;;;;;;;;;;;11.90;99.90;;;;;;5076833;28;20008;-82
2022/05/08 08:19:21;;;;;;;;;;;11.90;99.90;;;;;;5125483;27;19963;-82
2022/05/08 08:21:46;;;;;;;;;;;11.80;99.90;;;;;;5090581;28;19969;-85
2022/05/08 08:24:12;;;;;;;;;;;11.70;99.90;;;;;;5090802;28;19971;-82
2022/05/08 08:26:40;;;;;;;;;;;11.70;99.90;;;;;;5090349;28;20365;-83
2022/05/08 08:29:06;;;;;;;;;;;11.70;99.90;;;;;;5073112;28;19924;-82
2022/05/08 08:31:31;;;;;;;;;;;11.60;99.90;;;;;;5089126;28;19920;-84
2022/05/08 08:33:58;;;;;;;;;;;11.60;99.90;;;;;;5086643;28;19919;-84
2022/05/08 08:36:24;;;;;;;;;;;11.50;99.90;;;;;;5118632;27;20001;-83
2022/05/08 08:38:50;;;;;;;;;;;11.50;99.90;;;;;;5099048;28;19920;-84
2022/05/08 08:41:19;;;;;;;;;;;11.50;99.90;;;;;;5088318;28;19945;-84
2022/05/08 08:49:14;;;;;;;;;;;11.50;99.90;;;;;;5123374;27;19927;-83
2022/05/08 08:51:41;;;;;;;;;;;11.50;99.90;;;;;;5104800;28;19924;-83
2022/05/08 08:54:07;;;;;;;;;;;11.50;99.90;;;;;;5117389;27;19927;-82
2022/05/08 08:56:33;;;;;;;;;;;11.60;99.90;;;;;;5073338;28;19920;-83
2022/05/08 08:58:58;;;;;;;;;;;11.50;99.90;;;;;;5085198;28;19924;-86
2022/05/08 09:01:24;;;;;;;;;;;11.60;99.90;;;;;;5089179;28;20361;-83
2022/05/08 09:03:55;;;;;;;;;;;11.70;99.90;;;;;;5089532;28;19924;-86
2022/05/08 09:06:21;;;;;;;;;;;11.80;99.90;;;;;;5090197;28;19924;-83
2022/05/08 09:08:47;;;;;;;;;;;11.80;99.90;;;;;;5124591;28;19927;-82
2022/05/08 09:11:30;;;;;;;;;;;11.90;99.90;;;;;;5070493;28;19924;-84
2022/05/08 09:13:56;;;;;;;;;;;12.00;99.90;;;;;;5124417;28;19927;-84
2022/05/08 09:16:21;;;;;;;;;;;12.20;99.90;;;;;;5106074;28;19920;-87
2022/05/08 09:18:48;;;;;;;;;;;12.40;99.90;;;;;;5128734;27;19969;-88
2022/05/08 09:24:11;;;;;;;;;;;12.70;99.90;;;;;;5093714;28;19959;-89
2022/05/08 09:26:37;;;;;;;;;;;12.70;99.90;;;;;;5125640;27;20385;-89
2022/05/08 09:29:03;;;;;;;;;;;12.80;99.90;;;;;;5106073;28;19946;-81
2022/05/08 09:31:41;;;;;;;;;;;12.90;99.90;;;;;;5093647;28;19920;-81
2022/05/08 09:34:07;;;;;;;;;;;12.80;99.90;;;;;;5092541;28;20333;-81
2022/05/08 09:36:33;;;;;;;;;;;12.80;99.90;;;;;;5076380;28;20007;-81
2022/05/08 09:39:00;;;;;;;;;;;12.80;99.90;;;;;;5092393;28;19920;-82
2022/05/08 09:41:29;;;;;;;;;;;12.90;99.90;;;;;;5092773;28;19974;-81
2022/05/08 09:44:07;;;;;;;;;;;13.00;99.90;;;;;;5093182;28;20046;-83
2022/05/08 09:46:36;;;;;;;;;;;12.90;99.90;;;;;;5090281;28;19966;-82
2022/05/08 09:49:02;;;;;;;;;;;13.10;99.90;;;;;;5109938;28;19919;-82
2022/05/08 09:51:29;;;;;;;;;;;13.20;99.90;;;;;;5109438;28;19951;-83
2022/05/08 09:53:55;;;;;;;;;;;13.20;99.90;;;;;;5091556;28;19924;-83
2022/05/08 09:56:21;;;;;;;;;;;13.10;99.90;;;;;;5081894;28;19973;-82
2022/05/08 09:58:47;;;;;;;;;;;13.20;99.90;;;;;;5076494;28;19924;-81
2022/05/08 10:01:14;;;;;;;;;;;13.20;99.90;;;;;;5075315;28;19923;-81
2022/05/08 10:03:43;;;;;;;;;;;13.40;99.90;;;;;;5075726;28;19924;-81
2022/05/08 10:06:09;;;;;;;;;;;13.40;99.90;;;;;;5092221;28;19964;-83
2022/05/08 10:08:38;;;;;;;;;;;13.40;99.90;;;;;;5108817;28;20395;-82
2022/05/08 10:13:53;;;;;;;;;;;13.50;99.90;;;;;;5092874;28;20019;-82
2022/05/08 10:16:45;;;;;;;;;;;13.50;99.90;;;;;;5071497;28;19977;-82
2022/05/08 10:19:17;;;;;;;;;;;13.50;99.90;;;;;;5087831;28;19920;-83
2022/05/08 10:22:09;;;;;;;;;;;13.60;99.80;;;;;;5105959;28;19920;-83
2022/05/08 10:24:35;;;;;;;;;;;13.70;98.60;;;;;;5072454;28;19928;-82
2022/05/08 10:27:14;;;;;;;;;;;13.80;97.80;;;;;;5105273;28;19924;-82
2022/05/08 10:30:03;;;;;;;;;;;13.80;97.30;;;;;;5089324;28;20393;-84
2022/05/08 10:32:32;;;;;;;;;;;13.90;99.20;;;;;;5101133;28;20064;-82
2022/05/08 10:35:14;;;;;;;;;;;14.00;98.30;;;;;;5092431;28;19949;-83
2022/05/08 10:37:47;;;;;;;;;;;14.10;98.90;;;;;;5092049;28;19949;-81
2022/05/08 10:40:22;;;;;;;;;;;14.30;97.80;;;;;;5125048;27;20381;-82
2022/05/08 10:42:51;;;;;;;;;;;14.50;98.30;;;;;;5126049;27;19974;-83
2022/05/08 10:45:28;;;;;;;;;;;14.60;96.30;;;;;;5084722;28;19973;-82
2022/05/08 10:47:54;;;;;;;;;;;14.60;97.10;;;;;;5109408;28;19924;-83
2022/05/08 10:50:19;;;;;;;;;;;14.70;97.30;;;;;;5106806;28;20401;-82
2022/05/08 10:52:46;;;;;;;;;;;14.90;94.80;;;;;;5107471;27;19928;-83
2022/05/08 10:55:14;;;;;;;;;;;15.00;94.00;;;;;;5104666;28;19928;-83
2022/05/08 10:57:41;;;;;;;;;;;15.10;95.10;;;;;;5083365;28;19959;-83
2022/05/08 11:00:08;;;;;;;;;;;15.10;92.00;;;;;;5125119;27;19930;-83
2022/05/08 11:02:40;;;;;;;;;;;15.20;94.00;;;;;;5092257;28;19981;-82
2022/05/08 11:05:10;;;;;;;;;;;15.20;93.60;;;;;;5091644;28;19975;-83
2022/05/08 11:07:39;;;;;;;;;;;15.20;92.80;;;;;;5125683;27;19931;-82
2022/05/08 11:10:15;;;;;;;;;;;15.20;93.40;;;;;;5091302;28;20357;-83
2022/05/08 11:13:01;;;;;;;;;;;15.30;92.30;;;;;;5108204;28;20369;-88
2022/05/08 11:15:30;;;;;;;;;;;15.50;90.70;;;;;;5077635;28;20377;-86
2022/05/08 11:18:07;;;;;;;;;;;15.60;92.20;;;;;;5104013;28;20018;-87
2022/05/08 11:20:37;;;;;;;;;;;15.70;90.60;;;;;;5090093;28;19989;-83
2022/05/08 11:23:06;;;;;;;;;;;15.70;85.50;;;;;;5088756;28;19978;-84
2022/05/08 11:25:34;;;;;;;;;;;15.80;86.60;;;;;;5090983;28;20357;-82
2022/05/08 11:28:00;;;;;;;;;;;15.90;87.30;;;;;;5091527;28;19963;-85
2022/05/08 11:30:31;;;;;;;;;;;16.00;86.50;;;;;;5074088;28;19978;-82
2022/05/08 11:38:51;;;;;;;;;;;16.50;84.90;;;;;;5071029;28;19925;-82
2022/05/08 11:41:20;;;;;;;;;;;16.60;85.60;;;;;;5069563;28;19924;-80
2022/05/08 11:43:53;;;;;;;;;;;16.80;85.00;;;;;;5072237;28;19931;-80
2022/05/08 11:46:36;;;;;;;;;;;16.90;81.60;;;;;;5124522;27;20357;-81
2022/05/08 11:49:22;;;;;;;;;;;17.00;78.20;;;;;;5074364;28;20369;-82
2022/05/08 11:51:52;;;;;;;;;;;17.20;81.20;;;;;;5090335;28;19920;-80
2022/05/08 11:54:22;;;;;;;;;;;17.50;79.80;;;;;;5124170;27;19924;-81
2022/05/08 11:56:51;;;;;;;;;;;17.80;81.30;;;;;;5090127;28;19927;-81
2022/05/08 11:59:18;;;;;;;;;;;18.00;78.50;;;;;;5089737;28;20350;-80
2022/05/08 12:01:48;;;;;;;;;;;18.20;79.50;;;;;;5074065;28;19943;-81
2022/05/08 12:04:26;;;;;;;;;;;18.40;79.60;;;;;;5073626;28;19924;-80
2022/05/08 12:07:01;;;;;;;;;;;18.40;78.60;;;;;;5090510;28;19972;-80
2022/05/08 12:09:28;;;;;;;;;;;18.60;79.60;;;;;;5073429;28;19924;-81
2022/05/08 12:11:53;;;;;;;;;;;18.90;75.50;;;;;;5090166;28;19966;-81
2022/05/08 12:14:28;;;;;;;;;;;19.10;76.30;;;;;;5089558;28;20277;-81
2022/05/08 12:17:01;;;;;;;;;;;19.20;71.60;;;;;;5124651;27;19930;-81
2022/05/08 12:19:26;;;;;;;;;;;19.40;74.90;;;;;;5090359;28;20366;-81
2022/05/08 12:21:54;;;;;;;;;;;19.70;74.80;;;;;;5090310;28;19930;-81
2022/05/08 12:24:20;;;;;;;;;;;19.90;74.00;;;;;;5090173;28;19924;-81
2022/05/08 12:26:46;;;;;;;;;;;20.20;72.10;;;;;;5122353;27;20481;-80
2022/05/08 12:29:29;;;;;;;;;;;20.40;75.90;;;;;;5081956;28;19927;-82
2022/05/08 12:31:55;;;;;;;;;;;20.50;78.60;;;;;;5089968;28;19931;-83
2022/05/08 12:34:21;;;;;;;;;;;20.70;74.80;;;;;;5089870;28;20319;-81
2022/05/08 12:36:48;;;;;;;;;;;20.90;75.80;;;;;;5090066;28;19924;-81
2022/05/08 12:39:14;;;;;;;;;;;21.10;71.70;;;;;;5072981;28;20483;-81
2022/05/08 12:41:40;;;;;;;;;;;21.30;73.10;;;;;;5089146;28;19920;-80
2022/05/08 12:44:06;;;;;;;;;;;21.40;68.20;;;;;;5089475;28;20019;-81
2022/05/08 12:46:32;;;;;;;;;;;21.70;77.70;;;;;;5089939;28;19967;-81
2022/05/08 12:49:02;;;;;;;;;;;21.90;76.00;;;;;;5071686;28;19971;-81
2022/05/08 12:51:37;;;;;;;;;;;22.00;75.20;;;;;;5073935;28;19924;-79
2022/05/08 12:54:03;;;;;;;;;;;22.20;81.00;;;;;;5123908;27;20353;-82
2022/05/08 12:56:30;;;;;;;;;;;22.50;75.70;;;;;;5088979;28;19991;-82
2022/05/08 13:01:40;;;;;;;;;;;22.60;76.20;;;;;;5089793;28;19920;-82
2022/05/08 13:04:06;;;;;;;;;;;22.70;73.70;;;;;;5090154;28;19928;-82
2022/05/08 13:06:33;;;;;;;;;;;22.80;73.70;;;;;;5088961;28;19920;-82
2022/05/08 13:08:58;;;;;;;;;;;23.00;63.70;;;;;;5076518;28;19920;-83
2022/05/08 13:11:24;;;;;;;;;;;23.20;69.00;;;;;;5088839;28;20254;-81
2022/05/08 13:13:50;;;;;;;;;;;23.40;72.80;;;;;;5072004;28;19920;-82
2022/05/08 13:16:16;;;;;;;;;;;23.40;70.40;;;;;;5089139;28;20014;-82
2022/05/08 13:18:42;;;;;;;;;;;23.30;65.40;;;;;;5073380;28;19920;-82
2022/05/08 13:21:07;;;;;;;;;;;23.50;59.90;;;;;;5089639;28;20023;-82
2022/05/08 13:23:33;;;;;;;;;;;23.70;65.80;;;;;;5088913;28;19931;-82
2022/05/08 13:25:59;;;;;;;;;;;23.90;62.80;;;;;;5089342;28;19931;-82
2022/05/08 13:28:27;;;;;;;;;;;24.10;55.70;;;;;;5072484;28;19924;-82
2022/05/08 13:30:52;;;;;;;;;;;24.30;66.00;;;;;;5071411;28;19946;-82
2022/05/08 13:33:18;;;;;;;;;;;24.20;58.60;;;;;;5071791;28;19920;-82
2022/05/08 13:35:43;;;;;;;;;;;24.00;60.80;;;;;;5123960;27;19971;-82
2022/05/08 13:38:10;;;;;;;;;;;24.00;58.10;;;;;;5122995;28;19970;-83
2022/05/08 13:40:36;;;;;;;;;;;24.10;56.30;;;;;;5088260;28;19923;-82
2022/05/08 13:43:02;;;;;;;;;;;24.40;58.50;;;;;;5073000;28;19927;-82
2022/05/08 13:45:27;;;;;;;;;;;24.80;55.70;;;;;;5088960;28;20027;-82
2022/05/08 13:47:53;;;;;;;;;;;25.00;55.90;;;;;;5089715;28;19975;-83
2022/05/08 13:50:19;;;;;;;;;;;25.30;56.70;;;;;;5105928;28;19924;-83
2022/05/08 13:52:46;;;;;;;;;;;25.60;55.80;;;;;;5088440;28;20393;-83
2022/05/08 13:55:15;;;;;;;;;;;25.80;52.60;;;;;;5071984;28;20288;-83
2022/05/08 13:57:41;;;;;;;;;;;25.80;52.20;;;;;;5089739;28;19922;-83
2022/05/08 14:00:11;;;;;;;;;;;26.00;55.10;;;;;;5089105;28;19926;-83
2022/05/08 14:02:37;;;;;;;;;;;26.20;50.70;;;;;;5089878;28;19920;-82
2022/05/08 14:05:03;;;;;;;;;;;26.40;54.40;;;;;;5110457;28;19927;-83
2022/05/08 14:07:28;;;;;;;;;;;26.60;50.50;;;;;;5092141;28;19928;-82
2022/05/08 14:09:55;;;;;;;;;;;26.50;44.90;;;;;;5076262;28;19920;-82
2022/05/08 14:12:20;;;;;;;;;;;26.50;49.30;;;;;;5075191;28;19974;-82
2022/05/08 14:14:46;;;;;;;;;;;26.70;50.80;;;;;;5080969;28;19960;-83
2022/05/08 14:17:11;;;;;;;;;;;26.80;48.70;;;;;;5072683;28;20341;-83
2022/05/08 14:19:37;;;;;;;;;;;26.90;48.90;;;;;;5082847;28;19927;-82
2022/05/08 14:22:03;;;;;;;;;;;26.80;49.00;;;;;;5092545;28;19926;-82
2022/05/08 14:24:29;;;;;;;;;;;26.90;47.90;;;;;;5092056;28;19920;-82
2022/05/08 14:26:54;;;;;;;;;;;26.90;45.60;;;;;;5058328;28;20384;-82
2022/05/08 14:29:20;;;;;;;;;;;27.20;48.40;;;;;;5125527;27;19924;-82